KTXK/TXK METAR and TAF weather

Enter ICAO airport designator
Station Type Date Time Source
KTXK METAR 2021/09/20 03:53 UTC NOAA

KTXK 200353Z AUTO 12004KT 10SM CLR 24/22 A2991 RMK AO2 SLP124 T02390217


Station Type Date Time Source
KTXK Decoded METAR 2021/09/20 03:53 UTC NOAA

TEXARKANA RGNL WEBB FIELD, AR, United States (KTXK) 33-27N 093-59W 111M
Sep 19, 2021 - 11:53 PM EDT / 2021.09.20 0353 UTC
Wind: from the ESE (120 degrees) at 5 MPH (4 KT):0
Visibility: 10 mile(s):0
Sky conditions: clear
Temperature: 75.0 F (23.9 C)
Dew Point: 71.1 F (21.7 C)
Relative Humidity: 87%
Pressure (altimeter): 29.91 in. Hg (1012 hPa)
ob: KTXK 200353Z AUTO 12004KT 10SM CLR 24/22 A2991 RMK AO2 SLP124 T02390217
cycle: 4

Station Type Date Time Source
KTXK TAF 2021/09/19 19:30 UTC NOAA

TAF
AMD KTXK 191928Z 1919/2018 15007KT P6SM VCTS SCT050CB BKN060 OVC100
TEMPO 1919/1921 VRB08G17KT 4SM -TSRA BKN050CB OVC060
FM192100 17005KT P6SM VCTS SCT035CB BKN100
FM200000 VRB03KT P6SM SCT100 BKN250
FM201200 18003KT 5SM BR SCT250
FM201500 21007KT P6SM SKC

Example: see airport list